createdAt,value
2022-11-04T03:59:07.266Z,0.00
2022-11-04T04:00:07.816Z,0.00
2022-11-04T04:01:07.284Z,0.00
2022-11-04T04:02:07.907Z,0.00
2022-11-04T04:03:07.168Z,0.00
2022-11-04T04:04:07.830Z,0.00
2022-11-04T04:05:07.210Z,0.00
2022-11-04T04:06:07.852Z,0.00
2022-11-04T04:07:07.823Z,0.00
2022-11-04T04:08:07.617Z,0.00
2022-11-04T04:09:07.832Z,0.00
2022-11-04T04:10:07.792Z,0.00
2022-11-04T04:11:07.795Z,0.00
2022-11-04T04:12:07.797Z,0.00
2022-11-04T04:13:07.798Z,0.00
2022-11-04T04:14:07.874Z,0.00
2022-11-04T04:15:07.844Z,0.00
2022-11-04T04:16:07.823Z,0.00
2022-11-04T04:18:08.245Z,0.00
2022-11-04T04:19:07.103Z,0.00
2022-11-04T04:20:07.317Z,0.00
2022-11-04T04:21:06.123Z,0.00
2022-11-04T04:22:07.361Z,0.00
2022-11-04T04:23:06.075Z,0.00
2022-11-04T04:24:06.068Z,0.00
2022-11-04T04:25:08.348Z,0.00
2022-11-04T04:26:07.069Z,0.00
2022-11-04T04:27:07.218Z,0.00
2022-11-04T04:28:08.260Z,0.00
2022-11-04T04:29:07.823Z,0.00
2022-11-04T04:30:08.011Z,0.00
2022-11-04T04:31:07.851Z,0.00
2022-11-04T04:32:07.074Z,0.00
2022-11-04T04:33:07.821Z,0.00
2022-11-04T04:34:08.836Z,0.00
2022-11-04T04:35:07.877Z,0.00
2022-11-04T04:36:07.850Z,0.00
2022-11-04T04:37:07.832Z,0.00
2022-11-04T04:38:07.416Z,0.00
2022-11-04T04:39:07.862Z,0.00
2022-11-04T04:40:07.001Z,0.00
2022-11-04T04:41:08.861Z,0.00
2022-11-04T04:42:05.991Z,0.00
2022-11-04T04:43:08.238Z,0.00
2022-11-04T04:44:07.017Z,0.00
2022-11-04T04:45:06.982Z,0.00
2022-11-04T04:46:07.830Z,0.00
2022-11-04T04:47:07.037Z,0.00
2022-11-04T04:48:07.366Z,0.00
2022-11-04T04:49:07.024Z,0.00
2022-11-04T04:50:07.080Z,0.00
2022-11-04T04:51:05.999Z,0.00
2022-11-04T04:52:07.396Z,0.00
2022-11-04T04:53:06.428Z,0.00
2022-11-04T04:54:06.165Z,0.00
2022-11-04T04:55:05.981Z,0.00
2022-11-04T04:56:05.984Z,0.00
2022-11-04T04:57:06.988Z,0.00
2022-11-04T04:58:07.415Z,0.00
2022-11-04T04:59:06.969Z,0.00
2022-11-04T05:00:07.960Z,0.00
2022-11-04T05:01:08.978Z,0.00
2022-11-04T05:02:07.130Z,0.00
2022-11-04T05:03:07.540Z,0.00
2022-11-04T05:04:07.367Z,0.00
2022-11-04T05:05:08.418Z,0.00
2022-11-04T05:06:06.909Z,0.00
2022-11-04T05:07:06.946Z,0.00
2022-11-04T05:08:07.725Z,0.00
2022-11-04T05:09:07.365Z,0.00
2022-11-04T05:10:08.240Z,0.00
2022-11-04T05:11:06.967Z,0.00
2022-11-04T05:12:07.846Z,0.00
2022-11-04T05:13:07.269Z,0.00
2022-11-04T05:14:07.887Z,0.00
2022-11-04T05:15:08.101Z,0.00
2022-11-04T05:16:07.907Z,0.00
2022-11-04T05:17:06.926Z,0.00
2022-11-04T05:18:07.202Z,0.00
2022-11-04T05:19:06.918Z,0.00
2022-11-04T05:20:06.903Z,0.00
2022-11-04T05:21:07.868Z,0.00
2022-11-04T05:22:06.875Z,0.00
2022-11-04T05:23:06.854Z,0.00
2022-11-04T05:24:06.910Z,0.00
2022-11-04T05:25:07.937Z,0.00
2022-11-04T05:26:06.854Z,0.00
2022-11-04T05:27:08.363Z,0.00
2022-11-04T05:28:07.158Z,0.00
2022-11-04T05:29:07.446Z,0.00
2022-11-04T05:30:07.517Z,0.00
2022-11-04T05:31:07.415Z,0.00
2022-11-04T05:32:07.392Z,0.00
2022-11-04T05:33:07.277Z,0.00
2022-11-04T05:34:06.998Z,0.00
2022-11-04T05:35:07.509Z,0.00
2022-11-04T05:36:05.827Z,0.00
2022-11-04T05:37:07.447Z,0.00
2022-11-04T05:38:06.805Z,0.00
2022-11-04T05:39:07.410Z,0.00
2022-11-04T05:40:07.509Z,0.00
2022-11-04T05:41:07.393Z,0.00
2022-11-04T05:42:07.389Z,0.00
2022-11-04T05:43:07.767Z,0.00
2022-11-04T05:44:07.369Z,0.00
2022-11-04T05:45:07.411Z,0.00
2022-11-04T05:46:07.549Z,0.00
2022-11-04T05:47:07.405Z,0.00
2022-11-04T05:48:06.754Z,0.00
2022-11-04T05:49:07.418Z,0.00
2022-11-04T05:50:07.629Z,0.00
2022-11-04T05:51:07.420Z,0.00
2022-11-04T05:52:07.397Z,0.00
2022-11-04T05:53:07.025Z,0.00
2022-11-04T05:54:12.423Z,0.00
2022-11-04T05:55:06.902Z,0.00
2022-11-04T05:56:07.502Z,0.00
2022-11-04T05:57:07.384Z,0.00
2022-11-04T05:58:07.769Z,0.00
2022-11-04T05:59:05.858Z,0.00
2022-11-04T06:00:08.485Z,0.00
2022-11-04T06:01:06.758Z,0.00
2022-11-04T06:02:07.776Z,0.00
2022-11-04T06:03:10.665Z,0.00
2022-11-04T06:04:07.405Z,0.00
2022-11-04T06:05:07.388Z,0.00
2022-11-04T06:06:07.400Z,0.00
2022-11-04T06:07:07.448Z,4.00
2022-11-04T06:08:07.760Z,4.00
2022-11-04T06:09:05.732Z,4.00
2022-11-04T06:10:07.416Z,4.00
2022-11-04T06:11:07.492Z,4.00
2022-11-04T06:12:07.436Z,4.00
2022-11-04T06:13:05.668Z,4.00
2022-11-04T06:14:07.433Z,8.00
2022-11-04T06:15:07.436Z,8.00
2022-11-04T06:16:05.703Z,4.00
2022-11-04T06:17:05.735Z,8.00
2022-11-04T06:18:05.835Z,8.00
2022-11-04T06:19:08.663Z,8.00
2022-11-04T06:20:05.688Z,12.00
2022-11-04T06:21:06.430Z,12.00
2022-11-04T06:22:05.739Z,16.00
2022-11-04T06:23:06.999Z,16.00
2022-11-04T06:24:05.633Z,16.00
2022-11-04T06:25:05.829Z,20.00
2022-11-04T06:26:05.683Z,20.00
2022-11-04T06:27:06.922Z,24.00
2022-11-04T06:28:08.372Z,24.00
2022-11-04T06:29:07.164Z,24.00
2022-11-04T06:30:13.461Z,28.00
2022-11-04T06:31:10.979Z,32.00
2022-11-04T06:32:06.657Z,28.00
2022-11-04T06:33:05.670Z,32.00
2022-11-04T06:34:06.943Z,36.00
2022-11-04T06:35:06.661Z,36.00
2022-11-04T06:36:06.663Z,44.00
2022-11-04T06:37:06.599Z,48.00
2022-11-04T06:38:06.985Z,44.00
2022-11-04T06:39:07.458Z,48.00
2022-11-04T06:40:08.491Z,60.00
2022-11-04T06:41:06.882Z,64.00
2022-11-04T06:42:09.466Z,76.00
2022-11-04T06:43:05.895Z,84.00
2022-11-04T06:44:07.580Z,84.00
2022-11-04T06:45:07.555Z,88.00
2022-11-04T06:46:06.664Z,96.00
2022-11-04T06:47:07.076Z,88.00
2022-11-04T06:48:06.625Z,80.00
2022-11-04T06:49:06.980Z,76.00
2022-11-04T06:50:06.978Z,76.00
2022-11-04T06:51:06.657Z,88.00
2022-11-04T06:52:05.559Z,92.00
2022-11-04T06:53:05.694Z,96.00
2022-11-04T06:54:07.191Z,96.00
2022-11-04T06:55:07.797Z,92.00
2022-11-04T06:56:05.525Z,100.00
2022-11-04T06:57:07.949Z,116.00
2022-11-04T06:58:05.553Z,120.00
2022-11-04T06:59:06.945Z,116.00
2022-11-04T07:00:06.642Z,112.00
2022-11-04T07:01:12.624Z,112.00
2022-11-04T07:02:05.643Z,120.00
2022-11-04T07:03:11.127Z,124.00
2022-11-04T07:04:05.556Z,120.00
2022-11-04T07:05:07.692Z,128.00
2022-11-04T07:06:07.448Z,132.00
2022-11-04T07:07:07.540Z,144.00
2022-11-04T07:09:08.482Z,156.00
2022-11-04T07:10:05.635Z,168.00
2022-11-04T07:11:12.482Z,180.00
2022-11-04T07:12:05.502Z,196.00
2022-11-04T07:13:05.544Z,224.00
2022-11-04T07:14:06.510Z,244.00
2022-11-04T07:15:05.612Z,256.00
2022-11-04T07:16:06.976Z,268.00
2022-11-04T07:17:14.904Z,284.00
2022-11-04T07:19:54.174Z,328.00
2022-11-04T07:21:10.128Z,352.00
2022-11-04T07:21:59.856Z,368.00
2022-11-04T07:22:52.773Z,380.00
2022-11-04T07:23:52.788Z,396.00
2022-11-04T07:24:52.952Z,472.00
2022-11-04T07:25:54.726Z,476.00
2022-11-04T07:26:54.158Z,416.00
2022-11-04T07:27:55.473Z,364.00
2022-11-04T07:28:54.711Z,352.00
2022-11-04T07:29:54.687Z,380.00
2022-11-04T07:30:52.741Z,376.00
2022-11-04T07:31:52.898Z,392.00
2022-11-04T07:33:54.686Z,436.00
2022-11-04T07:34:53.178Z,456.00
2022-11-04T07:35:56.995Z,476.00
2022-11-04T07:36:54.466Z,504.00
2022-11-04T07:37:52.788Z,520.00
2022-11-04T07:38:54.700Z,564.00
2022-11-04T07:39:54.694Z,636.00
2022-11-04T07:40:52.859Z,708.00
2022-11-04T07:41:59.313Z,732.00
2022-11-04T07:42:57.045Z,828.00
2022-11-04T07:43:52.783Z,912.00
2022-11-04T07:44:54.124Z,924.00
2022-11-04T07:45:52.697Z,864.00
2022-11-04T07:46:53.859Z,1300.00
2022-11-04T07:47:53.730Z,764.00
2022-11-04T07:48:56.416Z,776.00
2022-11-04T07:49:55.462Z,832.00
2022-11-04T07:50:55.141Z,1300.00
2022-11-04T07:51:54.579Z,1292.00
2022-11-04T07:52:56.001Z,1460.00
2022-11-04T07:53:53.475Z,1480.00
2022-11-04T07:54:59.143Z,1368.00
2022-11-04T07:55:55.238Z,1452.00
2022-11-04T07:56:55.374Z,1024.00
2022-11-04T07:57:54.199Z,1044.00
2022-11-04T07:58:55.010Z,1000.00
2022-11-04T07:59:54.214Z,1104.00
2022-11-04T08:00:55.325Z,1068.00
2022-11-04T08:01:52.924Z,1892.00
2022-11-04T08:02:54.393Z,1292.00
2022-11-04T08:03:52.620Z,1564.00
2022-11-04T08:04:54.251Z,1376.00
2022-11-04T08:05:58.549Z,1880.00
2022-11-04T08:06:54.290Z,1200.00
2022-11-04T08:07:54.305Z,920.00
2022-11-04T08:09:52.654Z,728.00
2022-11-04T08:10:53.300Z,800.00
2022-11-04T08:11:52.600Z,904.00
2022-11-04T08:12:54.215Z,1000.00
2022-11-04T08:13:52.618Z,968.00
2022-11-04T08:14:53.969Z,1624.00
2022-11-04T08:15:52.624Z,1876.00
2022-11-04T08:16:52.900Z,1240.00
2022-11-04T08:17:52.595Z,772.00
2022-11-04T08:18:56.165Z,1300.00
2022-11-04T08:19:52.574Z,1256.00
2022-11-04T08:20:53.795Z,1256.00
2022-11-04T08:21:52.569Z,1928.00
2022-11-04T08:22:52.610Z,1892.00
2022-11-04T08:23:55.089Z,2148.00
2022-11-04T08:24:52.560Z,2260.00
2022-11-04T08:25:54.333Z,2340.00
2022-11-04T08:26:53.269Z,2408.00
2022-11-04T08:27:55.579Z,1744.00
2022-11-04T08:28:52.575Z,2316.00
2022-11-04T08:30:17.914Z,1376.00
2022-11-04T08:30:56.183Z,1844.00
2022-11-04T08:32:27.137Z,2396.00
2022-11-04T08:32:52.853Z,2348.00
2022-11-04T08:33:55.671Z,2280.00
2022-11-04T08:34:53.297Z,2296.00
2022-11-04T08:35:59.394Z,2292.00
2022-11-04T08:36:52.825Z,2392.00
2022-11-04T08:37:52.563Z,2412.00
2022-11-04T08:38:57.287Z,2200.00
2022-11-04T08:39:54.383Z,1248.00
2022-11-04T08:40:59.463Z,1364.00
2022-11-04T08:41:53.422Z,2156.00
2022-11-04T08:42:52.702Z,2468.00
2022-11-04T08:43:54.589Z,1260.00
2022-11-04T08:44:52.754Z,1708.00
2022-11-04T08:45:52.679Z,1224.00
2022-11-04T08:46:52.602Z,1208.00
2022-11-04T08:47:59.042Z,2336.00
2022-11-04T08:48:54.735Z,2256.00
2022-11-04T08:50:01.287Z,1636.00
2022-11-04T08:50:52.642Z,2156.00
2022-11-04T08:51:52.534Z,1644.00
2022-11-04T08:52:52.605Z,1604.00
2022-11-04T08:53:52.723Z,2908.00
2022-11-04T08:54:57.278Z,2360.00
2022-11-04T08:55:55.408Z,2700.00
2022-11-04T08:56:52.610Z,2672.00
2022-11-04T08:57:52.498Z,1536.00
2022-11-04T08:58:56.450Z,2512.00
2022-11-04T08:59:55.137Z,2212.00
2022-11-04T09:00:59.348Z,1712.00
2022-11-04T09:01:54.170Z,1804.00
2022-11-04T09:02:52.478Z,2304.00
2022-11-04T09:03:52.857Z,3196.00
2022-11-04T09:04:53.988Z,1880.00
2022-11-04T09:05:52.691Z,1872.00
2022-11-04T09:07:05.192Z,1836.00
2022-11-04T09:07:52.895Z,1888.00
2022-11-04T09:08:52.461Z,2176.00
2022-11-04T09:09:53.382Z,2264.00
2022-11-04T09:10:55.294Z,2156.00
2022-11-04T09:11:55.331Z,1928.00
2022-11-04T09:12:54.427Z,1828.00
2022-11-04T09:13:54.260Z,1964.00
2022-11-04T09:14:54.258Z,1932.00
2022-11-04T09:15:54.700Z,1896.00
2022-11-04T09:16:54.541Z,2032.00
2022-11-04T09:17:52.533Z,2272.00
2022-11-04T09:18:54.280Z,2640.00
2022-11-04T09:19:54.325Z,2800.00
2022-11-04T09:21:55.121Z,2660.00
2022-11-04T09:22:52.496Z,3600.00
2022-11-04T09:23:54.347Z,2760.00
2022-11-04T09:24:54.334Z,2188.00
2022-11-04T09:26:54.276Z,2220.00
2022-11-04T09:27:54.269Z,3060.00
2022-11-04T09:28:54.359Z,2928.00
2022-11-04T09:29:54.315Z,3000.00
2022-11-04T09:30:53.943Z,2988.00
2022-11-04T09:31:56.403Z,3072.00
2022-11-04T09:32:53.007Z,3060.00
2022-11-04T09:34:54.379Z,1940.00
2022-11-04T09:35:54.337Z,2724.00
2022-11-04T09:36:52.404Z,1888.00
2022-11-04T09:37:52.396Z,2148.00
2022-11-04T09:38:52.409Z,3220.00
2022-11-04T09:39:54.145Z,3064.00
2022-11-04T09:40:53.866Z,3344.00
2022-11-04T09:41:52.467Z,1876.00
2022-11-04T09:42:52.393Z,1916.00
2022-11-04T09:43:52.402Z,1800.00
2022-11-04T09:45:19.946Z,1852.00
2022-11-04T09:45:52.388Z,1896.00
2022-11-04T09:47:52.454Z,2056.00
2022-11-04T09:48:53.673Z,2160.00
2022-11-04T09:49:54.367Z,3316.00
2022-11-04T09:50:52.563Z,3816.00
2022-11-04T09:51:55.819Z,3992.00
2022-11-04T09:52:52.419Z,2460.00
2022-11-04T09:53:52.398Z,2408.00
2022-11-04T09:54:54.316Z,2416.00
2022-11-04T09:55:52.627Z,2644.00
2022-11-04T09:56:54.404Z,2700.00
2022-11-04T09:58:53.292Z,3400.00
2022-11-04T09:59:54.296Z,4404.00
2022-11-04T10:00:54.360Z,2836.00
2022-11-04T10:02:00.416Z,2352.00
2022-11-04T10:13:20.976Z,1912.00
2022-11-04T10:14:20.758Z,2132.00
2022-11-04T10:15:20.777Z,2284.00
2022-11-04T10:16:20.389Z,2148.00
2022-11-04T10:17:20.374Z,2244.00
2022-11-04T10:18:21.252Z,3136.00
2022-11-04T10:19:20.770Z,2652.00
2022-11-04T10:20:19.235Z,2476.00
2022-11-04T10:21:20.782Z,3644.00
2022-11-04T10:22:20.785Z,3400.00
2022-11-04T10:23:23.209Z,1980.00
2022-11-04T10:24:23.902Z,3112.00
2022-11-04T10:25:19.265Z,3532.00
2022-11-04T10:26:20.283Z,2792.00
2022-11-04T10:27:20.026Z,3180.00
2022-11-04T10:28:24.060Z,4120.00
2022-11-04T10:29:19.461Z,2868.00
2022-11-04T10:30:23.104Z,4276.00
2022-11-04T10:31:20.191Z,4092.00
2022-11-04T10:32:22.263Z,3860.00
2022-11-04T10:33:20.956Z,3736.00
2022-11-04T10:34:19.532Z,3672.00
2022-11-04T10:35:19.164Z,3464.00
2022-11-04T10:36:26.485Z,3504.00
2022-11-04T10:37:25.175Z,3404.00
2022-11-04T10:38:19.157Z,3404.00
2022-11-04T10:39:25.834Z,3296.00
2022-11-04T10:40:19.388Z,3432.00
2022-11-04T10:41:22.002Z,3740.00
2022-11-04T10:42:19.150Z,3812.00
2022-11-04T10:43:19.456Z,3620.00
2022-11-04T10:44:19.287Z,3212.00
2022-11-04T10:45:19.814Z,3020.00
2022-11-04T10:46:27.940Z,3020.00
2022-11-04T10:47:19.233Z,3124.00
2022-11-04T10:48:19.206Z,3048.00
2022-11-04T10:49:19.246Z,3180.00
2022-11-04T10:50:34.646Z,3772.00
2022-11-04T10:51:20.858Z,4284.00
2022-11-04T10:52:22.993Z,4444.00
2022-11-04T10:53:19.248Z,4304.00
2022-11-04T10:54:20.883Z,4352.00
2022-11-04T10:55:31.527Z,4416.00
2022-11-04T10:56:19.278Z,4124.00
2022-11-04T10:57:21.518Z,4424.00
2022-11-04T10:58:19.249Z,4644.00
2022-11-04T10:59:20.639Z,4080.00
2022-11-04T11:00:19.235Z,3624.00
2022-11-04T11:01:19.389Z,3436.00
2022-11-04T11:02:20.945Z,3280.00
2022-11-04T11:03:19.138Z,2440.00
2022-11-04T11:04:19.200Z,2936.00
2022-11-04T11:05:19.253Z,2836.00
2022-11-04T11:06:20.835Z,2924.00
2022-11-04T11:07:20.811Z,3036.00
2022-11-04T11:08:20.333Z,2840.00
2022-11-04T11:09:19.211Z,2952.00
2022-11-04T11:10:25.645Z,3068.00
2022-11-04T11:11:20.229Z,2464.00
2022-11-04T11:12:49.507Z,2508.00
2022-11-04T11:13:19.163Z,2724.00
2022-11-04T11:14:20.820Z,3236.00
2022-11-04T11:15:22.956Z,3312.00
2022-11-04T11:16:22.024Z,3328.00
2022-11-04T11:17:19.172Z,3192.00
2022-11-04T11:18:19.139Z,2984.00
2022-11-04T11:19:19.287Z,2724.00
2022-11-04T11:20:20.817Z,2740.00
2022-11-04T11:21:23.441Z,2724.00
2022-11-04T11:22:20.839Z,2740.00
2022-11-04T11:23:20.490Z,2848.00
2022-11-04T11:24:19.448Z,2808.00
2022-11-04T11:25:19.155Z,3504.00
2022-11-04T11:26:20.837Z,3400.00
2022-11-04T11:27:19.254Z,4184.00
2022-11-04T11:28:19.756Z,4372.00
2022-11-04T11:29:19.131Z,4128.00
2022-11-04T11:30:20.822Z,4156.00
2022-11-04T11:31:20.916Z,4192.00
2022-11-04T11:32:21.085Z,4268.00
2022-11-04T11:33:20.838Z,4220.00
2022-11-04T11:34:20.871Z,4312.00
2022-11-04T11:35:20.868Z,4252.00
2022-11-04T11:36:19.349Z,3412.00
2022-11-04T11:37:20.841Z,2832.00
2022-11-04T11:38:20.833Z,2624.00
2022-11-04T11:39:20.872Z,3096.00
2022-11-04T11:40:20.827Z,3512.00
2022-11-04T11:41:25.544Z,3968.00
2022-11-04T11:42:20.861Z,4428.00
2022-11-04T11:43:20.839Z,4660.00
2022-11-04T11:44:21.839Z,4732.00
2022-11-04T11:45:20.840Z,5008.00
2022-11-04T11:46:21.861Z,5444.00
2022-11-04T11:47:20.852Z,5964.00
2022-11-04T11:48:22.838Z,5760.00
2022-11-04T11:49:19.143Z,5796.00
2022-11-04T11:50:19.172Z,6168.00
2022-11-04T11:51:21.977Z,6780.00
2022-11-04T11:52:20.846Z,7508.00
2022-11-04T11:53:19.189Z,8156.00
2022-11-04T11:54:19.248Z,8204.00
2022-11-04T11:55:20.907Z,8396.00
2022-11-04T11:56:20.868Z,8036.00
2022-11-04T11:57:25.041Z,8240.00
2022-11-04T12:01:24.258Z,8956.00
2022-11-04T12:02:21.984Z,8596.00
2022-11-04T12:03:25.300Z,7600.00
2022-11-04T12:06:20.536Z,8772.00
2022-11-04T12:09:23.386Z,4844.00
2022-11-04T12:10:44.684Z,4468.00
2022-11-04T12:11:19.161Z,4444.00
2022-11-04T12:12:20.893Z,5272.00
2022-11-04T12:13:24.668Z,6484.00
2022-11-04T12:14:21.118Z,8784.00
2022-11-04T12:15:23.049Z,11536.00
2022-11-04T12:16:22.049Z,12380.00
2022-11-04T12:17:33.332Z,11552.00
2022-11-04T12:18:26.566Z,12396.00
2022-11-04T12:19:19.478Z,12944.00
2022-11-04T12:20:19.406Z,12396.00
2022-11-04T12:21:25.284Z,12684.00
2022-11-04T12:22:19.190Z,12868.00
2022-11-04T12:23:19.470Z,12536.00
2022-11-04T12:24:19.331Z,12720.00
2022-11-04T12:25:20.887Z,12808.00
2022-11-04T12:26:26.887Z,12576.00
2022-11-04T12:27:20.885Z,12388.00
2022-11-04T12:28:19.209Z,12112.00
2022-11-04T12:29:19.306Z,12064.00
2022-11-04T12:30:22.540Z,11964.00
2022-11-04T12:31:19.285Z,11860.00
2022-11-04T12:32:20.898Z,12040.00
2022-11-04T12:33:21.175Z,12608.00
2022-11-04T12:34:19.329Z,21568.00
2022-11-04T12:35:19.499Z,29952.00
2022-11-04T12:36:19.292Z,17088.00
2022-11-04T12:37:20.230Z,15508.00
2022-11-04T12:38:19.220Z,23776.00
2022-11-04T12:39:20.968Z,35904.00
2022-11-04T12:40:19.340Z,40352.00
2022-11-04T12:42:23.056Z,42400.00
2022-11-04T12:43:20.935Z,42976.00
2022-11-04T12:44:19.318Z,40384.00
2022-11-04T12:45:20.902Z,39232.00
2022-11-04T12:46:19.254Z,41184.00
2022-11-04T12:47:21.052Z,42976.00
2022-11-04T12:48:19.307Z,42784.00
2022-11-04T12:49:21.193Z,41216.00
2022-11-04T12:50:19.303Z,41376.00
2022-11-04T12:51:20.909Z,42816.00
2022-11-04T12:52:20.939Z,41248.00
2022-11-04T12:53:19.306Z,38752.00
2022-11-04T12:54:20.385Z,35392.00
2022-11-04T12:55:19.291Z,3264.00
2022-11-04T12:56:21.139Z,2824.00
2022-11-04T12:57:21.426Z,2732.00
2022-11-04T12:58:20.371Z,3476.00
2022-11-04T12:59:20.935Z,3260.00
2022-11-04T13:00:19.323Z,2492.00
2022-11-04T13:01:21.117Z,2104.00
2022-11-04T13:02:22.203Z,1728.00
2022-11-04T13:03:19.661Z,2024.00
2022-11-04T13:04:19.395Z,2568.00
2022-11-04T13:05:21.029Z,2952.00
2022-11-04T13:06:21.951Z,3392.00
2022-11-04T13:07:20.851Z,4512.00
2022-11-04T13:08:22.378Z,4792.00
2022-11-04T13:09:20.927Z,4340.00
2022-11-04T13:10:20.381Z,5296.00
2022-11-04T13:11:20.999Z,38720.00
2022-11-04T13:12:21.058Z,42272.00
2022-11-04T13:13:21.924Z,34144.00
2022-11-04T13:14:20.942Z,8548.00
2022-11-04T13:15:20.961Z,8416.00
2022-11-04T13:16:21.094Z,4968.00
2022-11-04T13:17:20.969Z,3592.00
2022-11-04T13:18:21.016Z,4436.00
2022-11-04T13:19:19.373Z,11032.00
2022-11-04T13:20:21.062Z,2116.00
2022-11-04T13:21:21.992Z,1468.00
2022-11-04T13:22:20.935Z,1324.00
2022-11-04T13:23:21.187Z,1156.00
2022-11-04T13:24:21.093Z,1080.00
2022-11-04T13:25:20.990Z,1132.00
2022-11-04T13:26:21.029Z,1228.00
2022-11-04T13:27:21.028Z,1152.00
2022-11-04T13:28:20.942Z,1212.00
2022-11-04T13:29:20.967Z,1296.00
2022-11-04T13:30:20.942Z,1496.00
2022-11-04T13:31:20.948Z,1908.00
2022-11-04T13:32:21.177Z,2448.00
2022-11-04T13:33:20.973Z,3012.00
2022-11-04T13:34:23.335Z,3604.00
2022-11-04T13:35:20.952Z,2916.00
2022-11-04T13:36:20.968Z,2608.00
2022-11-04T13:37:19.407Z,2120.00
2022-11-04T13:38:19.427Z,1948.00
2022-11-04T13:39:21.025Z,2028.00
2022-11-04T13:40:19.396Z,2144.00
2022-11-04T13:41:21.864Z,2184.00
2022-11-04T13:42:21.120Z,1480.00
2022-11-04T13:43:27.126Z,1520.00
2022-11-04T13:44:21.029Z,1124.00
2022-11-04T13:45:21.000Z,984.00
2022-11-04T13:46:20.958Z,856.00
2022-11-04T13:47:22.405Z,848.00
2022-11-04T13:48:26.961Z,864.00
2022-11-04T13:49:21.013Z,860.00
2022-11-04T13:50:20.986Z,864.00
2022-11-04T13:51:22.004Z,836.00
2022-11-04T13:52:19.394Z,832.00
2022-11-04T13:53:21.251Z,756.00
2022-11-04T13:54:21.052Z,704.00
2022-11-04T13:55:19.506Z,608.00
2022-11-04T13:56:32.789Z,536.00
2022-11-04T13:57:26.970Z,492.00
2022-11-04T13:58:19.438Z,468.00
2022-11-04T13:59:21.091Z,456.00
2022-11-04T14:00:20.993Z,448.00
2022-11-04T14:01:21.079Z,480.00
2022-11-04T14:02:26.097Z,524.00
2022-11-04T14:03:21.069Z,568.00
2022-11-04T14:04:19.385Z,624.00
2022-11-04T14:05:19.412Z,700.00
2022-11-04T14:06:19.422Z,792.00
2022-11-04T14:07:21.011Z,976.00
2022-11-04T14:08:19.437Z,1252.00
2022-11-04T14:09:20.998Z,1628.00
2022-11-04T14:10:19.378Z,2436.00
2022-11-04T14:11:19.506Z,6672.00
2022-11-04T14:12:19.412Z,2596.00
2022-11-04T14:13:21.368Z,2000.00
2022-11-04T14:15:22.998Z,1748.00
2022-11-04T14:16:19.371Z,1772.00
2022-11-04T14:17:21.006Z,1852.00
2022-11-04T14:18:19.388Z,2096.00
2022-11-04T14:19:21.000Z,2340.00
2022-11-04T14:20:21.043Z,2364.00
2022-11-04T14:21:19.379Z,2312.00
2022-11-04T14:22:19.362Z,2332.00
2022-11-04T14:23:21.011Z,2484.00
2022-11-04T14:24:21.007Z,2608.00
2022-11-04T14:25:21.050Z,2684.00
2022-11-04T14:26:21.071Z,2624.00
2022-11-04T14:27:20.501Z,2544.00
2022-11-04T14:28:21.143Z,2496.00
2022-11-04T14:29:21.020Z,2364.00
2022-11-04T14:30:19.351Z,2136.00
2022-11-04T14:31:21.016Z,1912.00
2022-11-04T14:32:21.017Z,1788.00
2022-11-04T14:33:22.026Z,1760.00
2022-11-04T14:34:21.026Z,1876.00
2022-11-04T14:35:21.024Z,1852.00
2022-11-04T14:36:21.016Z,1676.00
2022-11-04T14:37:19.336Z,1436.00
2022-11-04T14:38:21.015Z,1336.00
2022-11-04T14:39:19.350Z,1296.00
2022-11-04T14:40:21.058Z,1260.00
2022-11-04T14:41:21.052Z,1232.00
2022-11-04T14:42:21.052Z,1232.00
2022-11-04T14:43:21.059Z,1268.00
2022-11-04T14:44:20.415Z,1340.00
2022-11-04T14:45:21.012Z,1392.00
2022-11-04T14:46:21.111Z,1428.00
2022-11-04T14:47:21.020Z,1416.00
2022-11-04T14:48:21.081Z,1352.00
2022-11-04T14:49:21.083Z,1236.00
2022-11-04T14:50:21.021Z,1164.00
2022-11-04T14:51:21.091Z,1196.00
2022-11-04T14:52:21.019Z,1424.00
2022-11-04T14:53:21.125Z,1588.00
2022-11-04T14:54:21.055Z,1640.00
2022-11-04T14:55:21.172Z,1628.00
2022-11-04T14:56:23.776Z,1708.00
2022-11-04T14:57:19.349Z,1700.00
2022-11-04T14:58:19.315Z,1652.00
2022-11-04T14:59:19.308Z,1532.00
2022-11-04T15:00:19.314Z,1360.00
2022-11-04T15:01:21.198Z,1236.00
2022-11-04T15:02:19.485Z,1184.00
2022-11-04T15:04:19.332Z,1152.00
2022-11-04T15:05:21.108Z,1124.00
2022-11-04T15:06:19.274Z,1076.00
2022-11-04T15:07:19.269Z,1040.00
2022-11-04T15:08:19.299Z,1016.00
2022-11-04T15:09:19.437Z,988.00
2022-11-04T15:10:21.077Z,928.00
2022-11-04T15:11:20.063Z,848.00
2022-11-04T15:12:21.218Z,744.00
2022-11-04T15:13:21.186Z,644.00
2022-11-04T15:14:21.101Z,572.00
2022-11-04T15:15:21.188Z,528.00
2022-11-04T15:16:20.566Z,492.00
2022-11-04T15:17:20.252Z,448.00
2022-11-04T15:18:27.113Z,408.00
2022-11-04T15:19:21.095Z,368.00
2022-11-04T15:20:20.550Z,328.00
2022-11-04T15:21:21.074Z,288.00
2022-11-04T15:22:21.070Z,252.00
2022-11-04T15:23:21.055Z,220.00
2022-11-04T15:24:21.306Z,196.00
2022-11-04T15:25:21.110Z,172.00
2022-11-04T15:26:25.083Z,148.00
2022-11-04T15:27:21.283Z,128.00
2022-11-04T15:28:20.215Z,112.00
2022-11-04T15:29:21.136Z,100.00
2022-11-04T15:30:21.056Z,88.00
2022-11-04T15:31:21.081Z,84.00
2022-11-04T15:32:21.051Z,80.00
2022-11-04T15:33:20.213Z,76.00
2022-11-04T15:34:20.568Z,68.00
2022-11-04T15:35:21.189Z,64.00
2022-11-04T15:36:20.572Z,60.00
2022-11-04T15:37:21.057Z,60.00
2022-11-04T15:38:20.447Z,52.00
2022-11-04T15:39:20.189Z,48.00
2022-11-04T15:40:21.064Z,44.00
2022-11-04T15:41:20.601Z,40.00
2022-11-04T15:42:20.581Z,36.00
2022-11-04T15:43:20.200Z,32.00
2022-11-04T15:44:20.196Z,32.00
2022-11-04T15:45:19.184Z,32.00
2022-11-04T15:46:21.164Z,32.00
2022-11-04T15:47:21.608Z,32.00
2022-11-04T15:48:20.175Z,28.00
2022-11-04T15:49:20.170Z,28.00
2022-11-04T15:50:20.191Z,32.00
2022-11-04T15:51:21.086Z,32.00
2022-11-04T15:52:20.152Z,32.00
2022-11-04T15:53:21.160Z,36.00
2022-11-04T15:54:21.236Z,36.00
2022-11-04T15:55:19.164Z,40.00
2022-11-04T15:56:21.079Z,40.00
2022-11-04T15:57:21.228Z,40.00
2022-11-04T15:58:21.088Z,36.00
2022-11-04T15:59:20.156Z,40.00
2022-11-04T16:00:20.196Z,36.00
2022-11-04T16:01:20.317Z,36.00
2022-11-04T16:12:29.365Z,8.00
2022-11-04T16:13:29.830Z,8.00
2022-11-04T16:14:29.898Z,4.00
2022-11-04T16:15:29.338Z,8.00
2022-11-04T16:16:29.831Z,4.00
2022-11-04T16:17:29.837Z,4.00
2022-11-04T16:18:29.874Z,4.00
2022-11-04T16:19:29.287Z,4.00
2022-11-04T16:20:29.846Z,0.00
2022-11-04T16:21:29.280Z,4.00
2022-11-04T16:22:29.851Z,4.00
2022-11-04T16:23:29.912Z,0.00
2022-11-04T16:24:29.473Z,0.00
2022-11-04T16:25:29.251Z,0.00
2022-11-04T16:26:29.429Z,0.00
2022-11-04T16:27:28.263Z,0.00
2022-11-04T16:28:28.265Z,0.00
2022-11-04T16:29:28.292Z,0.00
2022-11-04T16:30:28.325Z,0.00
2022-11-04T16:31:29.370Z,0.00
2022-11-04T16:32:29.354Z,0.00
2022-11-04T16:33:30.856Z,0.00
2022-11-04T16:34:28.226Z,0.00
2022-11-04T16:35:28.222Z,0.00
2022-11-04T16:36:33.999Z,0.00
2022-11-04T16:37:29.528Z,0.00
2022-11-04T16:38:29.222Z,0.00
2022-11-04T16:39:29.210Z,0.00
2022-11-04T16:40:28.233Z,0.00
2022-11-04T16:41:29.855Z,0.00
2022-11-04T16:42:29.402Z,0.00
2022-11-04T16:43:29.222Z,0.00
2022-11-04T16:44:29.279Z,0.00
2022-11-04T16:45:29.191Z,0.00
2022-11-04T16:46:29.189Z,0.00
2022-11-04T16:47:29.867Z,0.00
2022-11-04T16:48:29.187Z,0.00
2022-11-04T16:49:29.893Z,0.00
2022-11-04T16:50:29.375Z,0.00
2022-11-04T16:51:29.854Z,0.00
2022-11-04T16:52:29.187Z,0.00
2022-11-04T16:53:29.155Z,0.00
2022-11-04T16:54:29.860Z,0.00
2022-11-04T16:55:30.034Z,0.00
2022-11-04T16:56:29.907Z,0.00
2022-11-04T16:57:29.891Z,0.00
2022-11-04T16:58:29.871Z,0.00
2022-11-04T16:59:29.886Z,0.00
2022-11-04T17:00:30.924Z,0.00
2022-11-04T17:01:30.149Z,0.00
2022-11-04T17:02:30.023Z,0.00
2022-11-04T17:03:28.145Z,0.00
2022-11-04T17:04:30.890Z,0.00
2022-11-04T17:05:29.119Z,0.00
2022-11-04T17:06:29.477Z,0.00
2022-11-04T17:07:47.194Z,0.00
2022-11-04T17:08:29.108Z,0.00
2022-11-04T17:09:29.187Z,0.00